NY Terminal Aviation Weather Discussion (AFD) - Prepared: 1159 AM EDT WED JUL 29 2015
A WEAK LOW PRESSURE TROUGH WILL REMAIN OVER THE AREA THIS
AFTERNOON...WHILE HIGH PRESSURE REMAINS TO THE WEST.

VFR. MOST TERMINALS WINDS COME FROM THE S/SW THIS AFTERNOON WITH
SPEEDS INCREASING TO AT LEAST 10 KT FOR COASTAL AIRPORTS. JFK 
LIKELY TO GET UP TO 15 KT OR EVEN STRONGER WITH COASTAL JET FOR
THE LATE AFTERNOON.

MVFR VSBY IN FOG/HAZE TOWARD 12Z THU. POSSIBLE SHRA/TSRA AFTER
12Z THU AT 30H TAF SITES.

5 Day General Aviation Outlook:

.OUTLOOK FOR 12Z THU THROUGH SUNDAY...
.THU...EARLY MORNING HAZE WITH MVFR CONDITIONS...THEN SCT
AFTERNOON/EVENING TSTMS WITH MVFR OR LOWER CONDITIONS.
.FRI-SUNDAY...VFR.

.OUTLOOK FOR 12Z THU THROUGH SUNDAY...
.THU...EARLY MORNING HAZE WITH MVFR CONDITIONS...THEN SCT
AFTERNOON/EVENING TSTMS WITH MVFR OR LOWER CONDITIONS.
.FRI-SUNDAY...VFR.


*************************************************************************************
KJFK Terminal Weather:

FTUS41 KOKX 291740
TAFJFK
TAF
KJFK 291740Z 2918/3024 19011KT P6SM FEW060 SCT250
     FM292100 18016KT P6SM FEW060 SCT250
     FM301100 21009KT 6SM HZ FEW030 SCT050
     FM301500 20014KT P6SM SCT030 BKN050 PROB30 3021/3024 5SM -TSRA
      BKN035CB=
KJFK FCSTER COMMENTS: WIND DIRECTION MAY VARY 160-180 IN THE
AFTERNOON.

*************************************************************************************
KLGA Terminal Weather:
FTUS80 KLGA 291742 RRC
KLGA 291740Z 2918/3018 05006KT P6SM FEW060 SCT250
     FM291830 18010KT P6SM FEW060 SCT250
     FM300100 22009KT P6SM FEW060 SCT250
     FM301100 21009KT 6SM HZ FEW030 SCT050
     FM301500 20014KT P6SM SCT030 BKN050
KLGA FCSTER COMMENTS: WIND DIRECTION MAY VARY 160-180 IN THE
AFTERNOON.

*************************************************************************************
KEWR Terminal Weather:
FTUS41 KOKX 291740
TAFEWR
TAF
KEWR 291740Z 2918/3024 16008KT P6SM FEW060 SCT250
     FM300100 20007KT P6SM FEW060 SCT250
     FM301100 22007KT 6SM HZ FEW030 SCT050
     FM301500 22012KT P6SM SCT030 BKN050 PROB30 3019/3024 5SM -TSRA
      BKN035CB=
KEWR FCSTER COMMENTS: WIND DIRECTION MAY VARY 150-210 IN THE
AFTERNOON.

*************************************************************************************
KTEB Terminal Weather:
FTUS80 KTEB 291742 RRE
KTEB 291740Z 2918/3018 30004KT P6SM SCT060
     FM291900 16007KT P6SM FEW060 SCT250
     FM300200 20006KT P6SM FEW060 SCT250
     FM301100 21004KT 5SM HZ FEW030 SCT050
     FM301500 20010KT P6SM SCT030 BKN050
KTEB FCSTER COMMENTS: WIND DIRECTION MAY VARY 160-210 IN THE
AFTERNOON.

*************************************************************************************
KHPN Terminal Weather:
FTUS41 KOKX 291740
TAFHPN
TAF
KHPN 291740Z 2918/3018 30008KT P6SM FEW050 SCT250
     FM291900 16010KT P6SM FEW060 SCT250
     FM300300 22004KT P6SM FEW060 SCT250
     FM300600 26003KT 5SM BR FEW030 SCT250
     FM301200 23004KT 4SM HZ BR OVC015
     FM301500 20014KT P6SM SCT030 BKN050
      AMD NOT SKED=
KHPN FCSTER COMMENTS: WIND DIRECTION MAY VARY 160-200 IN THE
AFTERNOON.

*************************************************************************************
KISP Terminal Weather:
FTUS80 KISP 291918 AAA
KISP 291917Z 2919/3018 22012KT P6SM FEW060 SCT250
     FM301100 22005KT 5SM HZ FEW030 SCT050
     FM301500 21013KT P6SM BKN050
KISP FCSTER COMMENTS: NO UNSCHEDULED AMENDMENTS EXPECTED.

*************************************************************************************
5 Day General Outlook:

.OUTLOOK FOR 12Z THU THROUGH SUNDAY...
.THU...EARLY MORNING HAZE WITH MVFR CONDITIONS...THEN SCT
AFTERNOON/EVENING TSTMS WITH MVFR OR LOWER CONDITIONS.
.FRI-SUNDAY...VFR.

.OUTLOOK FOR 12Z THU THROUGH SUNDAY...
.THU...EARLY MORNING HAZE WITH MVFR CONDITIONS...THEN SCT
AFTERNOON/EVENING TSTMS WITH MVFR OR LOWER CONDITIONS.
.FRI-SUNDAY...VFR.


Click the Print Icon print icon below to print the briefing sheet